Time;durP1;ratioP1;P1;durP2;ratioP2;P2;SDS_P1;SDS_P2;PMS_P1;PMS_P2;Temp;Humidity;BMP_temperature;BMP_pressure;BME280_temperature;BME280_humidity;BME280_pressure;Samples;Min_cycle;Max_cycle;Signal;HPM_P1;HPM_P2
2022/06/19 00:01:42;;;;;;;10.43;9.83;;;;;;;14.30;89.75;93256.53;5047980;28;20256;-78
2022/06/19 00:04:07;;;;;;;10.50;9.80;;;;;;;14.60;88.64;93274.44;5039431;28;20201;-78
2022/06/19 00:06:35;;;;;;;8.77;8.37;;;;;;;14.45;89.84;93280.72;5049269;28;20210;-78
2022/06/19 00:09:03;;;;;;;11.60;10.70;;;;;;;14.19;90.70;93247.19;5048962;28;20213;-80
2022/06/19 00:11:28;;;;;;;10.63;10.10;;;;;;;14.32;91.10;93265.69;5038925;28;20222;-79
2022/06/19 00:13:53;;;;;;;9.97;9.47;;;;;;;14.51;90.31;93278.78;5011846;28;20957;-78
2022/06/19 00:16:19;;;;;;;10.30;9.80;;;;;;;14.38;89.99;93267.16;5029255;28;20218;-78
2022/06/19 00:18:45;;;;;;;10.67;9.73;;;;;;;14.50;89.26;93282.50;5027739;28;20199;-78
2022/06/19 00:21:11;;;;;;;10.43;9.93;;;;;;;14.32;89.59;93259.63;5029115;28;20245;-78
2022/06/19 00:23:37;;;;;;;9.77;9.20;;;;;;;14.55;89.30;93289.53;5029254;28;20187;-79
2022/06/19 00:26:03;;;;;;;10.67;9.87;;;;;;;14.39;89.89;93281.09;5028239;28;20227;-78
2022/06/19 00:28:29;;;;;;;9.73;9.17;;;;;;;14.43;89.67;93271.56;5028406;28;20175;-79
2022/06/19 00:30:54;;;;;;;10.50;9.90;;;;;;;14.41;89.98;93279.72;5027428;28;20229;-79
2022/06/19 00:33:20;;;;;;;10.60;9.80;;;;;;;14.42;90.40;93278.69;5028740;28;20210;-78
2022/06/19 00:35:46;;;;;;;10.77;10.17;;;;;;;14.14;90.54;93263.81;5026075;28;20242;-79
2022/06/19 00:38:12;;;;;;;10.70;10.20;;;;;;;14.05;93.32;93281.28;5029059;28;20205;-78
2022/06/19 00:40:38;;;;;;;11.40;10.70;;;;;;;13.92;93.46;93255.69;5028907;28;20230;-78
2022/06/19 00:43:04;;;;;;;11.80;11.10;;;;;;;14.10;93.08;93283.03;5011737;28;20641;-78
2022/06/19 00:45:37;;;;;;;10.83;10.23;;;;;;;14.17;92.54;93279.00;5028946;28;20194;-78
2022/06/19 00:48:11;;;;;;;10.70;10.20;;;;;;;14.15;91.89;93280.31;5028606;28;20206;-79
2022/06/19 00:50:38;;;;;;;10.50;9.97;;;;;;;13.91;92.96;93269.91;5028156;28;20233;-78
2022/06/19 00:53:08;;;;;;;10.20;9.60;;;;;;;13.92;94.18;93281.94;5029725;28;20275;-78
2022/06/19 00:55:38;;;;;;;10.40;9.70;;;;;;;13.88;93.12;93265.19;5035216;28;20183;-79
2022/06/19 00:58:09;;;;;;;10.20;9.70;;;;;;;14.08;92.82;93285.94;5052884;28;20186;-79
2022/06/19 01:00:36;;;;;;;10.50;9.90;;;;;;;13.95;93.09;93260.38;5052575;28;20194;-78
2022/06/19 01:03:11;;;;;;;9.90;9.30;;;;;;;14.03;92.49;93253.72;5051924;28;20190;-78
2022/06/19 01:05:40;;;;;;;10.40;9.70;;;;;;;14.17;92.84;93267.69;5051239;28;20236;-78
2022/06/19 01:08:05;;;;;;;9.80;9.20;;;;;;;14.25;92.33;93275.78;5052608;28;20186;-78
2022/06/19 01:10:33;;;;;;;10.53;9.83;;;;;;;13.88;94.30;93275.69;5052193;28;20203;-78
2022/06/19 01:12:59;;;;;;;10.53;9.93;;;;;;;13.80;94.32;93265.84;5051747;28;20209;-79
2022/06/19 01:15:26;;;;;;;10.33;9.73;;;;;;;13.93;93.72;93272.25;5052545;28;20185;-79
2022/06/19 01:18:00;;;;;;;11.00;10.33;;;;;;;13.99;93.95;93271.88;5052363;28;20190;-79
2022/06/19 01:20:27;;;;;;;11.93;11.00;;;;;;;14.04;92.96;93277.06;5052211;28;20177;-78
2022/06/19 01:23:14;;;;;;;11.07;10.43;;;;;;;13.78;93.56;93267.97;5050977;28;20189;-79
2022/06/19 01:25:42;;;;;;;10.67;10.17;;;;;;;13.58;93.55;93235.94;5050163;28;20238;-79
2022/06/19 01:31:00;;;;;;;11.10;10.20;;;;;;;13.62;93.52;93235.09;5052456;28;20244;-80
2022/06/19 01:33:34;;;;;;;11.80;10.90;;;;;;;13.83;93.14;93254.00;5044670;28;20205;-79
2022/06/19 01:36:01;;;;;;;11.70;10.73;;;;;;;13.74;93.25;93264.31;5051602;28;20222;-81
2022/06/19 01:38:29;;;;;;;11.10;10.33;;;;;;;13.76;93.57;93271.94;5036812;28;20192;-79
2022/06/19 01:41:10;;;;;;;9.87;9.27;;;;;;;13.59;93.71;93243.53;5046549;28;20290;-79
2022/06/19 01:43:35;;;;;;;10.63;9.60;;;;;;;13.72;93.83;93269.09;5031903;28;20217;-79
2022/06/19 01:46:04;;;;;;;9.60;9.10;;;;;;;13.59;95.20;93271.59;5031931;28;20318;-79
2022/06/19 01:48:32;;;;;;;10.33;9.73;;;;;;;13.59;94.04;93271.59;5032242;28;20561;-80
2022/06/19 01:51:00;;;;;;;10.37;9.77;;;;;;;13.61;93.42;93265.00;5037712;28;20256;-79
2022/06/19 01:53:41;;;;;;;9.90;9.27;;;;;;;13.47;93.48;93258.88;5035951;28;20225;-79
2022/06/19 01:56:09;;;;;;;10.20;9.37;;;;;;;13.48;94.50;93272.78;5051445;28;20228;-80
2022/06/19 01:58:37;;;;;;;10.90;10.07;;;;;;;13.43;94.39;93254.47;5051569;28;20585;-79
2022/06/19 02:01:08;;;;;;;9.57;8.93;;;;;;;13.47;93.97;93258.09;5051879;28;20443;-80
2022/06/19 02:03:46;;;;;;;10.17;9.67;;;;;;;13.43;93.89;93263.09;5051032;28;20225;-79
2022/06/19 02:06:15;;;;;;;9.63;9.23;;;;;;;13.52;93.06;93277.19;5049664;28;20225;-80
2022/06/19 02:08:41;;;;;;;9.87;9.17;;;;;;;13.22;93.60;93243.41;5042270;28;20194;-79
2022/06/19 02:11:11;;;;;;;10.30;9.67;;;;;;;13.57;93.08;93269.25;5043854;28;20226;-79
2022/06/19 02:13:38;;;;;;;9.17;8.77;;;;;;;13.41;93.32;93270.50;5031011;28;20238;-79
2022/06/19 02:16:08;;;;;;;10.77;10.17;;;;;;;13.18;92.79;93224.06;5012084;28;20241;-79
2022/06/19 02:18:37;;;;;;;9.47;9.07;;;;;;;13.28;94.42;93284.25;5031201;28;20637;-79
2022/06/19 02:21:06;;;;;;;8.90;8.47;;;;;;;13.24;93.96;93272.00;5030984;28;20310;-79
2022/06/19 02:23:36;;;;;;;10.43;9.83;;;;;;;13.09;93.51;93246.69;5031605;28;20207;-79
2022/06/19 02:26:05;;;;;;;10.90;10.10;;;;;;;13.42;93.64;93287.78;5036860;28;20236;-80
2022/06/19 02:28:35;;;;;;;9.77;9.17;;;;;;;13.51;93.28;93286.09;5051240;28;20210;-79
2022/06/19 02:31:01;;;;;;;10.47;9.67;;;;;;;13.47;92.91;93290.38;5050860;28;20316;-79
2022/06/19 02:33:30;;;;;;;10.03;9.53;;;;;;;13.42;93.39;93298.28;5051649;28;20229;-79
2022/06/19 02:35:56;;;;;;;9.73;9.23;;;;;;;13.36;93.10;93288.13;5044734;28;20227;-79
2022/06/19 02:38:21;;;;;;;10.10;9.13;;;;;;;13.35;93.45;93295.22;5030956;28;20190;-79
2022/06/19 02:41:15;;;;;;;10.30;9.70;;;;;;;13.19;93.59;93295.63;5030395;28;20238;-79
2022/06/19 02:43:41;;;;;;;10.30;9.50;;;;;;;13.14;92.83;93266.84;5030681;28;20864;-80
2022/06/19 02:46:06;;;;;;;10.87;9.97;;;;;;;13.41;92.39;93299.34;5030454;28;20226;-79
2022/06/19 02:48:33;;;;;;;9.83;9.33;;;;;;;13.28;92.67;93286.09;5031222;28;20333;-79
2022/06/19 02:51:03;;;;;;;9.60;9.10;;;;;;;13.41;92.60;93294.09;5029794;28;20230;-79
2022/06/19 02:53:28;;;;;;;10.47;9.97;;;;;;;13.52;91.93;93298.19;5030542;28;20233;-79
2022/06/19 02:55:55;;;;;;;10.40;9.90;;;;;;;13.22;92.81;93274.88;5029214;28;20226;-79
2022/06/19 02:58:21;;;;;;;9.10;8.63;;;;;;;13.55;92.04;93292.38;5029937;28;20229;-79
2022/06/19 03:00:51;;;;;;;10.07;9.57;;;;;;;13.89;90.09;93292.22;5033949;28;20320;-79
2022/06/19 03:03:25;;;;;;;9.53;9.13;;;;;;;14.52;86.75;93300.59;5033996;28;20189;-78
2022/06/19 03:05:50;;;;;;;10.13;9.63;;;;;;;15.29;82.82;93299.88;5050197;28;20891;-79
2022/06/19 03:08:15;;;;;;;9.87;9.37;;;;;;;15.62;79.15;93275.88;5050127;28;20174;-79
2022/06/19 03:10:41;;;;;;;9.70;9.27;;;;;;;16.78;74.37;93320.88;5049774;28;20305;-79
2022/06/19 03:13:06;;;;;;;10.93;10.10;;;;;;;17.57;70.02;93291.72;5039018;28;20210;-79
2022/06/19 03:15:32;;;;;;;9.90;9.40;;;;;;;18.45;67.04;93301.19;5049835;28;20241;-79
2022/06/19 03:17:57;;;;;;;9.13;8.70;;;;;;;19.13;63.99;93311.00;5036865;28;20178;-79
2022/06/19 03:20:25;;;;;;;9.70;9.00;;;;;;;19.77;61.05;93286.09;5048586;28;20257;-81
2022/06/19 03:22:51;;;;;;;9.50;9.10;;;;;;;20.43;59.54;93316.34;5029231;28;20191;-75
2022/06/19 03:25:17;;;;;;;9.27;8.87;;;;;;;20.01;60.40;93335.88;5029789;28;20222;-79
2022/06/19 03:27:43;;;;;;;9.23;8.83;;;;;;;19.56;62.11;93332.13;5030407;28;20195;-79
2022/06/19 03:30:12;;;;;;;8.73;8.07;;;;;;;19.06;63.76;93316.00;5029403;28;20244;-79
2022/06/19 03:32:37;;;;;;;8.83;8.43;;;;;;;19.31;63.66;93330.31;5049107;28;20221;-79
2022/06/19 03:35:03;;;;;;;9.37;8.57;;;;;;;19.54;63.27;93326.38;5032668;28;20265;-79
2022/06/19 03:37:29;;;;;;;8.73;8.23;;;;;;;20.16;59.69;93304.34;5048918;28;20220;-79
2022/06/19 03:39:54;;;;;;;9.40;8.90;;;;;;;19.58;63.28;93332.59;5024419;28;20193;-79
2022/06/19 03:42:19;;;;;;;9.63;9.13;;;;;;;20.83;58.81;93324.66;5047638;28;20328;-79
2022/06/19 03:44:45;;;;;;;8.90;8.30;;;;;;;20.45;59.16;93320.22;5050575;28;20201;-79
2022/06/19 03:47:18;;;;;;;8.73;8.23;;;;;;;19.08;64.36;93304.00;5023546;28;20248;-80
2022/06/19 03:49:43;;;;;;;8.60;7.97;;;;;;;19.34;64.31;93304.00;5022165;28;20192;-81
2022/06/19 03:52:08;;;;;;;8.47;8.07;;;;;;;19.61;63.69;93316.06;5042621;28;20217;-78
2022/06/19 03:54:34;;;;;;;9.03;8.47;;;;;;;19.67;63.51;93317.47;5036745;28;20219;-79
2022/06/19 03:56:59;;;;;;;9.40;8.90;;;;;;;19.43;63.95;93317.19;5049604;28;20228;-79
2022/06/19 03:59:25;;;;;;;10.47;9.90;;;;;;;19.60;64.12;93310.00;5049889;28;20271;-79
2022/06/19 04:01:51;;;;;;;9.37;8.83;;;;;;;19.66;63.91;93319.31;5039598;28;20779;-79
2022/06/19 04:04:16;;;;;;;10.53;9.93;;;;;;;18.88;66.77;93307.28;5049543;28;20209;-79
2022/06/19 04:06:42;;;;;;;10.97;10.27;;;;;;;18.60;68.18;93310.56;5049747;28;20224;-79
2022/06/19 04:09:12;;;;;;;10.10;9.40;;;;;;;18.81;68.50;93311.50;5049622;28;20196;-79
2022/06/19 04:11:37;;;;;;;9.27;8.73;;;;;;;19.49;65.97;93298.19;5049370;28;20293;-79
2022/06/19 04:14:04;;;;;;;8.93;8.43;;;;;;;19.65;65.30;93296.59;5038909;28;20219;-79
2022/06/19 04:16:31;;;;;;;11.03;10.10;;;;;;;19.27;66.91;93316.88;5048508;28;20229;-79
2022/06/19 04:18:59;;;;;;;9.80;9.20;;;;;;;19.02;68.16;93302.59;5049310;28;20735;-79
2022/06/19 04:21:27;;;;;;;11.43;10.70;;;;;;;19.02;69.27;93315.84;5048502;28;20758;-79
2022/06/19 04:23:55;;;;;;;12.97;12.07;;;;;;;18.48;70.34;93291.84;5048442;28;20224;-79
2022/06/19 04:26:21;;;;;;;11.63;10.57;;;;;;;18.33;71.79;93319.50;5049045;28;20291;-79
2022/06/19 04:28:47;;;;;;;12.10;11.20;;;;;;;18.05;72.75;93264.56;5049205;28;20204;-79
2022/06/19 04:31:13;;;;;;;12.20;11.10;;;;;;;18.25;72.71;93332.69;5049614;28;20242;-79
2022/06/19 04:33:39;;;;;;;12.80;11.70;;;;;;;18.47;71.18;93271.78;5041360;28;20229;-79
2022/06/19 04:36:10;;;;;;;11.63;10.83;;;;;;;22.46;57.93;93337.88;5048387;28;21076;-79
2022/06/19 04:38:37;;;;;;;12.70;11.63;;;;;;;23.29;53.88;93325.53;5048718;28;20193;-79
2022/06/19 04:41:03;;;;;;;12.20;11.30;;;;;;;21.50;57.78;93338.50;5048669;28;20225;-79
2022/06/19 04:43:28;;;;;;;12.30;11.40;;;;;;;20.59;61.23;93336.69;5040734;28;20230;-79
2022/06/19 04:46:02;;;;;;;12.15;10.95;;;;;;;20.05;63.96;93334.13;5049247;28;20236;-79
2022/06/19 04:48:27;;;;;;;12.87;11.67;;;;;;;18.97;67.40;93318.63;5048145;28;20250;-79
2022/06/19 04:50:53;;;;;;;12.93;12.03;;;;;;;18.39;70.10;93320.94;5048544;28;20232;-79
2022/06/19 04:53:19;;;;;;;13.93;12.70;;;;;;;17.87;73.58;93302.59;5048264;28;20203;-79
2022/06/19 04:55:44;;;;;;;13.60;12.30;;;;;;;18.33;72.52;93330.09;5048687;28;20234;-79
2022/06/19 04:58:10;;;;;;;13.27;12.23;;;;;;;17.90;73.82;93341.59;5032968;28;20194;-79
2022/06/19 05:00:35;;;;;;;13.13;12.07;;;;;;;17.17;77.20;93329.69;5045593;28;20242;-79
2022/06/19 05:03:00;;;;;;;13.60;12.33;;;;;;;18.26;73.31;93316.53;5047491;28;20203;-79
2022/06/19 05:05:26;;;;;;;13.23;12.23;;;;;;;19.90;67.62;93343.41;5047397;28;20191;-79
2022/06/19 05:07:51;;;;;;;12.67;11.57;;;;;;;20.94;61.54;93341.75;5048409;28;20190;-75
2022/06/19 05:10:17;;;;;;;12.80;11.70;;;;;;;20.46;64.26;93336.94;5046568;28;20187;-75
2022/06/19 05:12:42;;;;;;;13.80;12.47;;;;;;;22.45;57.83;93353.06;5047278;28;20177;-75
2022/06/19 05:15:09;;;;;;;11.73;10.93;;;;;;;26.60;46.16;93363.81;5048240;28;20210;-75
2022/06/19 05:17:35;;;;;;;11.98;10.85;;;;;;;29.13;39.09;93372.88;5038468;28;20238;-79
2022/06/19 05:20:04;;;;;;;11.13;10.27;;;;;;;29.83;37.08;93372.44;5048371;28;20189;-77
2022/06/19 05:22:31;;;;;;;11.63;10.70;;;;;;;28.87;38.42;93370.38;5046450;28;20245;-76
2022/06/19 05:24:56;;;;;;;11.57;10.77;;;;;;;26.90;42.21;93374.63;5047806;28;20221;-78
2022/06/19 05:27:22;;;;;;;11.57;10.68;;;;;;;23.66;50.99;93354.38;5047306;28;20222;-77
2022/06/19 05:29:47;;;;;;;11.50;10.60;;;;;;;20.37;61.56;93352.13;5036824;28;20194;-79
2022/06/19 05:32:12;;;;;;;12.05;11.05;;;;;;;22.02;57.55;93363.47;5047731;28;20224;-77
2022/06/19 05:34:38;;;;;;;13.02;11.98;;;;;;;23.12;55.30;93350.56;5047978;28;20223;-78
2022/06/19 05:37:04;;;;;;;12.05;11.13;;;;;;;27.64;42.54;93365.66;5046781;28;20216;-77
2022/06/19 05:39:30;;;;;;;11.93;10.93;;;;;;;31.20;34.92;93392.28;5048444;28;20204;-76
2022/06/19 05:41:57;;;;;;;10.82;9.98;;;;;;;33.47;30.35;93385.25;5051237;28;20225;-75
2022/06/19 05:44:24;;;;;;;10.70;9.90;;;;;;;34.32;28.96;93385.06;5052156;28;20186;-73
2022/06/19 05:46:50;;;;;;;10.32;9.43;;;;;;;35.40;26.53;93391.53;5050470;28;20222;-79
2022/06/19 05:49:15;;;;;;;11.13;10.18;;;;;;;36.49;25.80;93405.72;5051332;28;20216;-77
2022/06/19 05:51:41;;;;;;;11.65;10.65;;;;;;;36.92;24.63;93391.97;5048726;28;20226;-79
2022/06/19 05:54:07;;;;;;;9.75;8.95;;;;;;;36.49;25.13;93394.06;5050277;28;20249;-73
2022/06/19 05:56:33;;;;;;;9.35;8.55;;;;;;;37.73;23.89;93403.59;5050817;28;20222;-74
2022/06/19 05:58:59;;;;;;;9.05;8.45;;;;;;;37.56;23.21;93400.09;5047154;28;20198;-73
2022/06/19 06:01:25;;;;;;;7.95;7.47;;;;;;;37.17;24.58;93400.31;5050489;28;20233;-73
2022/06/19 06:03:51;;;;;;;7.93;7.43;;;;;;;38.02;23.47;93396.91;5051190;28;20189;-73
2022/06/19 06:06:25;;;;;;;8.10;7.65;;;;;;;32.04;29.96;93371.59;5049151;28;20229;-75
2022/06/19 06:08:52;;;;;;;8.45;7.72;;;;;;;35.97;26.22;93390.50;5049656;28;20221;-72
2022/06/19 06:11:18;;;;;;;8.35;7.80;;;;;;;38.31;23.80;93410.53;5045881;28;20222;-76
2022/06/19 06:13:44;;;;;;;7.60;7.10;;;;;;;37.99;23.32;93403.25;5049851;28;20225;-76
2022/06/19 06:16:12;;;;;;;7.72;7.20;;;;;;;38.17;23.09;93387.16;5040898;28;20226;-78
2022/06/19 06:18:37;;;;;;;10.15;9.20;;;;;;;37.40;23.24;93396.63;5048966;28;20170;-74
2022/06/19 06:21:08;;;;;;;7.03;6.50;;;;;;;36.77;23.80;93396.19;5041542;28;20297;-74
2022/06/19 06:23:34;;;;;;;7.95;7.43;;;;;;;39.22;21.05;93404.28;5049078;28;20186;-74
2022/06/19 06:25:59;;;;;;;6.78;6.38;;;;;;;37.52;22.80;93402.16;5049619;28;20237;-72
2022/06/19 06:28:25;;;;;;;6.30;6.00;;;;;;;37.66;22.61;93399.06;5050864;28;20198;-71
2022/06/19 06:30:50;;;;;;;6.40;6.10;;;;;;;37.82;22.38;93390.88;5050126;28;20221;-72
2022/06/19 06:33:15;;;;;;;6.97;6.57;;;;;;;36.35;23.11;93407.97;5051109;28;20210;-72
2022/06/19 06:35:41;;;;;;;6.55;6.25;;;;;;;36.43;21.15;93403.94;5040291;28;20238;-71
2022/06/19 06:38:06;;;;;;;6.70;6.40;;;;;;;37.51;20.67;93383.50;5050697;28;20193;-74
2022/06/19 06:40:32;;;;;;;6.25;5.85;;;;;;;38.85;19.01;93405.81;5049984;28;20182;-72
2022/06/19 06:42:57;;;;;;;7.70;7.18;;;;;;;39.30;18.90;93405.56;5049493;28;20181;-74
2022/06/19 06:45:23;;;;;;;5.75;5.45;;;;;;;39.67;17.32;93407.47;5050049;28;20174;-73
2022/06/19 06:47:48;;;;;;;5.22;5.03;;;;;;;38.53;18.80;93402.50;5048817;28;20245;-73
2022/06/19 06:50:14;;;;;;;5.85;5.28;;;;;;;38.03;17.73;93406.63;5049723;28;20194;-76
2022/06/19 06:52:39;;;;;;;5.75;5.55;;;;;;;33.55;22.50;93365.06;5049589;28;20214;-74
2022/06/19 06:55:05;;;;;;;5.75;5.55;;;;;;;30.79;24.84;93369.56;5050585;28;20214;-73
2022/06/19 06:57:31;;;;;;;6.20;5.90;;;;;;;28.44;27.35;93349.63;5050030;28;20242;-74
2022/06/19 06:59:56;;;;;;;6.80;6.45;;;;;;;26.52;30.47;93352.19;5049891;28;20186;-74
2022/06/19 07:02:21;;;;;;;6.80;6.40;;;;;;;25.34;33.58;93340.84;5049696;28;20228;-73
2022/06/19 07:04:47;;;;;;;6.82;6.43;;;;;;;25.18;34.55;93348.16;5050103;28;20218;-69
2022/06/19 07:07:12;;;;;;;6.90;6.60;;;;;;;24.62;36.32;93344.19;5049553;28;20218;-72
2022/06/19 07:09:37;;;;;;;8.30;7.90;;;;;;;24.25;34.91;93342.94;5049549;28;20186;-72
2022/06/19 07:12:03;;;;;;;7.13;6.82;;;;;;;23.80;35.56;93331.88;5049294;28;20728;-72
2022/06/19 07:14:29;;;;;;;7.00;6.70;;;;;;;23.66;34.14;93322.38;5049865;28;20221;-75
2022/06/19 07:16:54;;;;;;;6.70;6.40;;;;;;;23.76;36.42;93337.09;5049251;28;20245;-71
2022/06/19 07:19:19;;;;;;;7.43;7.05;;;;;;;23.55;37.70;93331.19;5049516;28;20208;-72
2022/06/19 07:21:45;;;;;;;6.85;6.55;;;;;;;23.64;35.50;93321.94;5049456;28;20236;-72
2022/06/19 07:24:10;;;;;;;7.35;6.95;;;;;;;22.51;38.38;93327.81;5048755;28;20225;-72
2022/06/19 07:26:36;;;;;;;7.90;7.40;;;;;;;23.05;35.46;93329.03;5048746;28;20256;-72
2022/06/19 07:29:02;;;;;;;7.65;7.25;;;;;;;22.94;36.38;93327.94;5049544;28;20231;-73
2022/06/19 07:31:28;;;;;;;7.40;7.00;;;;;;;22.74;39.35;93320.91;5049312;28;20217;-72
2022/06/19 07:33:53;;;;;;;6.82;6.53;;;;;;;22.98;35.75;93322.72;5049619;28;20211;-71
2022/06/19 07:36:21;;;;;;;7.85;7.45;;;;;;;23.12;36.04;93310.59;5048925;28;20229;-72
2022/06/19 07:38:47;;;;;;;7.95;7.55;;;;;;;22.71;36.62;93320.81;5049603;28;20215;-71
2022/06/19 07:41:13;;;;;;;7.53;7.13;;;;;;;22.61;37.43;93326.59;5048789;28;20244;-72
2022/06/19 07:43:39;;;;;;;7.75;7.25;;;;;;;22.76;37.70;93326.66;5049623;28;20193;-72
2022/06/19 07:46:04;;;;;;;7.43;7.13;;;;;;;22.71;37.90;93308.25;5048550;28;20261;-72
2022/06/19 07:51:14;;;;;;;8.20;7.55;;;;;;;22.69;39.02;93329.13;5048764;28;20245;-72
2022/06/19 07:53:40;;;;;;;7.28;6.97;;;;;;;22.62;35.44;93326.25;5038313;28;20235;-72
2022/06/19 07:56:05;;;;;;;8.23;7.65;;;;;;;22.76;36.45;93329.34;5047435;28;21588;-71
2022/06/19 07:58:33;;;;;;;6.80;6.50;;;;;;;22.70;38.27;93328.00;5048946;28;20194;-72
2022/06/19 08:00:59;;;;;;;7.70;7.30;;;;;;;22.79;37.56;93333.97;5047340;28;20237;-72
2022/06/19 08:03:24;;;;;;;6.65;6.38;;;;;;;22.83;38.32;93324.22;5049165;28;20212;-72
2022/06/19 08:05:50;;;;;;;7.88;7.40;;;;;;;22.65;38.00;93328.25;5048444;28;20229;-71
2022/06/19 08:08:21;;;;;;;8.05;7.45;;;;;;;22.61;38.30;93332.69;5049398;28;20192;-72
2022/06/19 08:10:50;;;;;;;7.95;7.55;;;;;;;22.36;39.19;93328.47;5048536;28;20225;-72
2022/06/19 08:13:19;;;;;;;7.40;7.10;;;;;;;22.40;38.92;93316.03;5047517;28;20276;-72
2022/06/19 08:15:46;;;;;;;7.60;7.30;;;;;;;22.44;38.01;93324.91;5048917;28;20232;-71
2022/06/19 08:18:11;;;;;;;7.75;7.35;;;;;;;22.15;37.36;93309.94;5049222;28;20183;-71
2022/06/19 08:20:37;;;;;;;7.05;6.75;;;;;;;22.23;38.32;93281.69;5047292;28;20231;-71
2022/06/19 08:23:03;;;;;;;8.05;7.55;;;;;;;22.56;39.64;93324.94;5048814;28;20195;-72
2022/06/19 08:25:28;;;;;;;7.72;7.22;;;;;;;22.34;37.97;93319.25;5048289;28;20330;-71
2022/06/19 08:27:54;;;;;;;7.57;7.28;;;;;;;22.26;40.84;93318.25;5049336;28;20213;-70
2022/06/19 08:30:28;;;;;;;7.45;7.05;;;;;;;22.12;39.58;93317.81;5048253;28;20193;-71
2022/06/19 08:32:54;;;;;;;6.97;6.55;;;;;;;22.23;38.84;93304.88;5048151;28;20251;-71
2022/06/19 08:35:20;;;;;;;7.57;7.18;;;;;;;22.39;36.92;93319.03;5047641;28;20196;-72
2022/06/19 08:37:50;;;;;;;7.68;7.28;;;;;;;22.33;38.98;93307.06;5049558;28;20207;-71
2022/06/19 08:40:31;;;;;;;6.63;6.32;;;;;;;22.41;37.67;93314.94;5046727;28;20188;-71
2022/06/19 08:42:56;;;;;;;6.75;6.55;;;;;;;22.68;37.40;93306.28;5048522;28;20188;-71
2022/06/19 08:45:37;;;;;;;7.43;7.13;;;;;;;22.71;36.13;93297.59;5047727;28;20196;-71
2022/06/19 08:48:27;;;;;;;7.40;7.03;;;;;;;22.86;34.56;93299.59;5047339;28;20188;-71
2022/06/19 08:51:02;;;;;;;7.60;7.20;;;;;;;22.97;37.22;93303.34;5046669;28;20229;-73
2022/06/19 08:53:56;;;;;;;7.28;6.97;;;;;;;23.24;37.82;93304.44;5040226;28;20232;-72
2022/06/19 08:56:35;;;;;;;7.53;7.00;;;;;;;22.60;38.06;93301.84;5040754;28;20247;-72
2022/06/19 08:59:20;;;;;;;8.63;8.15;;;;;;;22.39;37.80;93301.19;5047221;28;20193;-72
2022/06/19 09:02:34;;;;;;;7.20;6.80;;;;;;;22.48;36.02;93306.38;5031105;28;20239;-72
2022/06/19 09:05:37;;;;;;;7.78;7.47;;;;;;;22.72;37.70;93309.03;5048018;28;20179;-72
2022/06/19 09:08:18;;;;;;;8.00;7.38;;;;;;;22.77;36.98;93296.25;5047124;28;20246;-72
2022/06/19 09:10:55;;;;;;;7.47;7.18;;;;;;;22.73;37.88;93295.38;5046943;28;20257;-73
2022/06/19 09:13:45;;;;;;;7.07;6.78;;;;;;;23.09;37.63;93305.94;5047112;28;20218;-71
2022/06/19 09:16:48;;;;;;;7.60;7.20;;;;;;;23.07;35.60;93292.19;5050937;28;20243;-73
2022/06/19 09:19:37;;;;;;;7.70;6.88;;;;;;;22.88;37.75;93292.03;5051862;28;20208;-72
2022/06/19 09:22:17;;;;;;;7.20;6.85;;;;;;;23.07;37.08;93286.06;5042135;28;20241;-72
2022/06/19 09:24:48;;;;;;;6.85;6.55;;;;;;;22.78;36.09;93292.50;5051353;28;20232;-72
2022/06/19 09:27:16;;;;;;;7.60;7.20;;;;;;;22.77;36.63;93277.63;5050588;28;20235;-72
2022/06/19 09:30:02;;;;;;;7.15;6.78;;;;;;;22.87;37.45;93279.81;5050940;28;20220;-75
2022/06/19 09:32:53;;;;;;;6.85;6.60;;;;;;;23.05;36.66;93269.69;5050363;28;21202;-72
2022/06/19 09:35:33;;;;;;;6.93;6.63;;;;;;;23.20;37.48;93276.94;5050073;28;20202;-73
2022/06/19 09:38:34;;;;;;;7.22;6.93;;;;;;;23.34;38.54;93272.00;5051028;28;20185;-72
2022/06/19 09:41:04;;;;;;;7.22;6.90;;;;;;;23.32;38.78;93264.34;5047026;28;20239;-73
2022/06/19 09:43:40;;;;;;;7.18;6.88;;;;;;;23.48;37.96;93262.50;5051340;28;20192;-72
2022/06/19 09:46:18;;;;;;;7.20;6.90;;;;;;;23.33;37.76;93271.22;5050763;28;21017;-72
2022/06/19 09:49:19;;;;;;;6.90;6.60;;;;;;;23.19;35.80;93254.06;5051380;28;20204;-72
2022/06/19 09:51:56;;;;;;;7.30;7.00;;;;;;;23.29;36.38;93270.38;5004584;28;20251;-72
2022/06/19 09:54:44;;;;;;;6.95;6.65;;;;;;;23.59;35.75;93279.53;5050933;28;20243;-73
2022/06/19 09:57:13;;;;;;;7.50;7.20;;;;;;;23.70;35.06;93272.56;5049995;28;20319;-72
2022/06/19 10:00:06;;;;;;;6.88;6.57;;;;;;;23.46;36.51;93264.72;5041342;28;20192;-73
2022/06/19 10:02:51;;;;;;;7.00;6.70;;;;;;;23.60;36.03;93269.63;5050238;28;20236;-71
2022/06/19 10:05:42;;;;;;;7.30;7.00;;;;;;;23.80;33.37;93273.19;5050291;28;20230;-73
2022/06/19 10:08:23;;;;;;;6.80;6.50;;;;;;;23.54;31.79;93257.69;5042499;28;20243;-73
2022/06/19 10:11:02;;;;;;;7.15;6.85;;;;;;;23.57;33.42;93255.13;5039950;28;20240;-71
2022/06/19 10:13:33;;;;;;;6.40;6.00;;;;;;;23.66;31.64;93258.38;5049609;28;20219;-72
2022/06/19 10:16:01;;;;;;;6.80;6.50;;;;;;;23.57;33.10;93255.13;5050407;28;20235;-72
2022/06/19 10:18:31;;;;;;;6.70;6.40;;;;;;;23.61;35.21;93247.97;5049770;28;20211;-72
2022/06/19 10:24:45;;;;;;;7.07;6.78;;;;;;;24.18;32.13;93242.13;5050655;28;20246;-71
2022/06/19 10:27:13;;;;;;;6.50;6.30;;;;;;;24.00;36.88;93240.94;4977549;28;20249;-73
2022/06/19 10:30:04;;;;;;;7.38;6.78;;;;;;;24.24;37.10;93243.41;5050791;28;20184;-75
2022/06/19 10:33:02;;;;;;;6.78;6.38;;;;;;;24.58;33.75;93229.28;5038313;28;20224;-76
2022/06/19 10:36:02;;;;;;;7.00;6.70;;;;;;;24.54;32.68;93243.69;5003180;28;20214;-74
2022/06/19 10:38:50;;;;;;;6.85;6.55;;;;;;;24.81;32.18;93240.09;5050012;28;20224;-73
2022/06/19 10:44:34;;;;;;;7.03;6.72;;;;;;;24.22;32.76;93242.22;5048895;28;20203;-72
2022/06/19 10:47:09;;;;;;;7.35;7.05;;;;;;;23.66;35.12;93242.38;5048393;28;20224;-74
2022/06/19 10:49:37;;;;;;;7.13;6.82;;;;;;;23.63;33.54;93237.75;5049723;28;20195;-73
2022/06/19 10:52:12;;;;;;;7.40;6.95;;;;;;;23.68;36.06;93242.03;5048378;28;20231;-73
2022/06/19 10:54:40;;;;;;;7.25;6.85;;;;;;;23.99;33.35;93238.59;5049285;28;20212;-74
2022/06/19 10:57:21;;;;;;;7.03;6.72;;;;;;;23.76;33.90;93241.09;5047436;28;20231;-73
2022/06/19 10:59:48;;;;;;;7.03;6.72;;;;;;;23.48;33.88;93225.19;5049333;28;20197;-73
2022/06/19 11:07:48;;;;;;;8.90;8.27;;;;;;;23.15;35.76;93226.53;5007104;22;21069;-72
2022/06/19 11:10:24;;;;;;;8.15;7.55;;;;;;;23.03;34.41;93214.06;5004456;28;20198;-74
2022/06/19 11:12:56;;;;;;;7.57;7.18;;;;;;;23.30;34.26;93225.84;5005640;28;20221;-72
2022/06/19 11:15:24;;;;;;;7.60;7.30;;;;;;;23.63;36.05;93220.97;5006639;28;20384;-72
2022/06/19 11:18:07;;;;;;;8.30;7.80;;;;;;;23.64;33.53;93204.63;5004193;28;20246;-71
2022/06/19 11:20:33;;;;;;;7.80;7.50;;;;;;;23.75;35.09;93205.66;5000790;28;20198;-72
2022/06/19 11:23:03;;;;;;;8.93;8.32;;;;;;;23.95;34.98;93211.06;5004276;28;20193;-72
2022/06/19 11:25:33;;;;;;;7.75;7.40;;;;;;;23.99;34.10;93211.94;5003463;28;20266;-73
2022/06/19 11:28:01;;;;;;;7.57;7.18;;;;;;;23.65;34.63;93219.50;5004294;28;20203;-73
2022/06/19 11:30:30;;;;;;;7.72;7.35;;;;;;;23.45;36.06;93214.41;5003456;28;20201;-72
2022/06/19 11:32:56;;;;;;;6.85;6.55;;;;;;;23.29;34.91;93193.09;5006056;28;20194;-73
2022/06/19 11:35:23;;;;;;;7.65;7.25;;;;;;;23.45;35.33;93175.22;5003530;28;20187;-73
2022/06/19 11:37:55;;;;;;;7.40;6.90;;;;;;;23.71;35.07;93196.81;5004408;28;21033;-72
2022/06/19 11:40:33;;;;;;;7.82;7.32;;;;;;;23.62;35.56;93140.22;5003105;28;20182;-72
2022/06/19 11:43:00;;;;;;;8.35;7.85;;;;;;;24.24;34.98;93202.59;5001823;28;20200;-71
2022/06/19 11:45:34;;;;;;;7.63;7.22;;;;;;;24.15;33.12;93196.69;4984801;28;20186;-71
2022/06/19 11:48:07;;;;;;;8.45;7.95;;;;;;;24.22;34.19;93196.84;5003144;28;20186;-72
2022/06/19 11:50:32;;;;;;;7.75;7.40;;;;;;;24.50;35.36;93202.81;5006240;28;20195;-72
2022/06/19 11:53:08;;;;;;;8.23;7.68;;;;;;;24.35;33.23;93187.59;5001983;28;20204;-72
2022/06/19 11:55:46;;;;;;;7.22;6.93;;;;;;;23.84;35.19;93168.16;5004208;28;20190;-78
2022/06/19 11:58:26;;;;;;;7.10;6.75;;;;;;;23.68;35.79;93175.38;5003490;28;20199;-80
2022/06/19 12:01:07;;;;;;;6.93;6.57;;;;;;;23.95;36.41;93176.38;5004321;28;20244;-73